createdAt,value
2023-04-04T07:11:55.685Z,1.40
2023-04-04T07:14:26.113Z,1.80
2023-04-04T07:16:55.429Z,2.10
2023-04-04T07:19:28.777Z,2.30
2023-04-04T07:21:57.605Z,2.50
2023-04-04T07:24:26.180Z,2.60
2023-04-04T07:26:54.945Z,2.80
2023-04-04T07:29:24.134Z,2.90
2023-04-04T07:31:54.486Z,3.20
2023-04-04T07:34:23.219Z,3.40
2023-04-04T07:36:52.018Z,3.60
2023-04-04T07:39:20.598Z,3.60
2023-04-04T07:41:49.225Z,3.90
2023-04-04T07:44:17.969Z,3.90
2023-04-04T07:46:49.844Z,4.00
2023-04-04T07:49:26.204Z,4.10
2023-04-04T07:51:55.892Z,4.20
2023-04-04T07:54:25.071Z,4.30
2023-04-04T07:56:53.759Z,4.40
2023-04-04T07:59:22.843Z,4.60
2023-04-04T08:01:51.636Z,4.60
2023-04-04T08:04:20.357Z,4.80
2023-04-04T08:06:50.601Z,4.90
2023-04-04T08:09:19.300Z,5.00
2023-04-04T08:11:47.893Z,5.10
2023-04-04T08:14:19.119Z,5.20
2023-04-04T08:16:48.259Z,5.20
2023-04-04T08:19:18.891Z,5.20
2023-04-04T08:21:47.711Z,5.20
2023-04-04T08:24:18.045Z,5.40
2023-04-04T08:26:51.806Z,5.60
2023-04-04T08:29:33.143Z,5.50
2023-04-04T08:32:02.405Z,5.50
2023-04-04T08:34:31.439Z,5.60
2023-04-04T08:37:00.192Z,5.90
2023-04-04T08:39:31.932Z,6.20
2023-04-04T08:42:05.783Z,6.60
2023-04-04T08:44:38.450Z,6.80
2023-04-04T08:47:09.840Z,7.20
2023-04-04T08:49:42.813Z,7.20
2023-04-04T08:52:15.573Z,7.70
2023-04-04T08:54:47.663Z,8.70
2023-04-04T08:57:16.462Z,8.20
2023-04-04T08:59:45.468Z,7.80
2023-04-04T09:02:25.517Z,8.20
2023-04-04T09:05:05.658Z,8.20
2023-04-04T09:07:38.767Z,8.10
2023-04-04T09:10:19.476Z,8.60
2023-04-04T09:13:12.428Z,8.30
2023-04-04T09:15:49.790Z,7.80
2023-04-04T09:18:19.280Z,7.50
2023-04-04T09:20:49.221Z,7.40
2023-04-04T09:23:20.935Z,7.40
2023-04-04T09:26:03.364Z,7.60
2023-04-04T09:28:33.836Z,7.70
2023-04-04T09:31:05.942Z,7.90
2023-04-04T09:33:35.577Z,7.70
2023-04-04T09:36:07.175Z,7.40
2023-04-04T09:38:38.557Z,7.40
2023-04-04T09:41:13.749Z,7.70
2023-04-04T09:43:42.840Z,7.60
2023-04-04T09:46:11.832Z,7.40
2023-04-04T09:48:41.336Z,7.30
2023-04-04T09:51:14.009Z,7.40
2023-04-04T09:53:42.995Z,7.40
2023-04-04T09:56:27.399Z,7.50
2023-04-04T09:59:03.817Z,7.60
2023-04-04T10:01:36.070Z,8.00
2023-04-04T10:04:06.425Z,8.10
2023-04-04T10:06:37.645Z,8.30
2023-04-04T10:12:09.685Z,9.30
2023-04-04T10:14:38.753Z,9.90
2023-04-04T10:17:11.729Z,10.70
2023-04-04T10:19:47.348Z,11.30
2023-04-04T10:22:22.550Z,10.70
2023-04-04T10:24:53.808Z,10.40
2023-04-04T10:27:23.861Z,11.00
2023-04-04T10:29:53.086Z,11.80
2023-04-04T10:32:25.939Z,11.90
2023-04-04T10:35:01.005Z,11.80
2023-04-04T10:37:33.532Z,11.90
2023-04-04T10:40:09.539Z,11.80
2023-04-04T10:42:41.664Z,12.10
2023-04-04T10:45:20.436Z,11.00
2023-04-04T10:47:52.273Z,11.60
2023-04-04T10:50:22.225Z,12.20
2023-04-04T10:52:52.174Z,13.00
2023-04-04T10:55:22.225Z,13.70
2023-04-04T10:57:55.597Z,13.60
2023-04-04T11:00:27.921Z,13.20
2023-04-04T11:02:58.666Z,12.40
2023-04-04T11:05:29.621Z,11.90
2023-04-04T11:11:01.555Z,12.20
2023-04-04T11:13:42.546Z,12.80
2023-04-04T11:16:44.298Z,14.20
2023-04-04T11:19:21.485Z,13.20
2023-04-04T11:21:56.044Z,13.60
2023-04-04T11:24:29.951Z,14.50
2023-04-04T11:26:58.680Z,15.20
2023-04-04T11:29:53.523Z,15.10
2023-04-04T11:32:40.105Z,14.90
2023-04-04T11:35:11.090Z,14.10
2023-04-04T11:38:05.705Z,14.90
2023-04-04T11:40:41.851Z,14.60
2023-04-04T11:43:14.546Z,14.00
2023-04-04T11:45:49.106Z,13.00
2023-04-04T11:48:22.077Z,13.80
2023-04-04T11:50:51.607Z,13.80
2023-04-04T11:53:20.873Z,13.90
2023-04-04T11:55:54.961Z,13.80
2023-04-04T11:58:24.393Z,13.10
2023-04-04T12:00:55.877Z,13.70
2023-04-04T12:03:25.573Z,13.70
2023-04-04T12:05:54.618Z,14.30
2023-04-04T12:08:24.789Z,14.30
2023-04-04T12:10:53.738Z,14.50
2023-04-04T12:13:22.394Z,15.80
2023-04-04T12:15:51.369Z,16.00
2023-04-04T12:18:27.701Z,17.00
2023-04-04T12:20:58.368Z,15.70
2023-04-04T12:23:27.882Z,15.10
2023-04-04T12:25:58.800Z,15.80
2023-04-04T12:28:28.495Z,15.20
2023-04-04T12:30:57.793Z,16.00
2023-04-04T12:33:28.376Z,17.50
2023-04-04T12:35:59.236Z,18.50
2023-04-04T12:38:28.610Z,19.30
2023-04-04T12:40:59.468Z,17.60
2023-04-04T12:43:30.212Z,18.30
2023-04-04T12:45:59.956Z,17.10
2023-04-04T12:48:31.915Z,18.00
2023-04-04T12:51:04.960Z,18.50
2023-04-04T12:53:34.221Z,18.40
2023-04-04T12:56:06.642Z,17.90
2023-04-04T12:58:37.457Z,18.20
2023-04-04T13:01:07.114Z,18.80
2023-04-04T13:03:38.232Z,18.70
2023-04-04T13:06:17.591Z,18.80
2023-04-04T13:08:53.515Z,20.00
2023-04-04T13:11:22.517Z,20.40
2023-04-04T13:14:02.778Z,19.80
2023-04-04T13:16:33.252Z,20.10
2023-04-04T13:19:10.123Z,20.50
2023-04-04T13:21:41.536Z,20.10
2023-04-04T13:24:14.470Z,20.20
2023-04-04T13:26:44.938Z,20.20
2023-04-04T13:29:13.726Z,20.00
2023-04-04T13:31:42.550Z,20.50
2023-04-04T13:34:13.196Z,20.10
2023-04-04T13:36:41.962Z,20.50
2023-04-04T13:39:12.303Z,20.10
2023-04-04T13:41:55.199Z,21.00
2023-04-04T13:44:27.102Z,21.10
2023-04-04T13:46:56.157Z,21.20
2023-04-04T13:49:26.938Z,20.80
2023-04-04T13:52:34.836Z,19.60
2023-04-04T13:55:02.537Z,18.50
2023-04-04T13:57:31.613Z,19.20
2023-04-04T14:00:00.585Z,19.60
2023-04-04T14:02:30.003Z,20.70
2023-04-04T14:05:08.916Z,21.20
2023-04-04T14:07:38.921Z,20.60
2023-04-04T14:10:08.698Z,20.60
2023-04-04T14:12:37.212Z,21.20
2023-04-04T14:15:07.514Z,20.70
2023-04-04T14:17:36.233Z,19.70
2023-04-04T14:20:06.978Z,20.10
2023-04-04T14:22:35.775Z,20.70
2023-04-04T14:25:05.151Z,20.80
2023-04-04T14:27:34.021Z,21.10
2023-04-04T14:30:02.982Z,21.10
2023-04-04T14:32:32.664Z,19.40
2023-04-04T14:35:01.871Z,21.10
2023-04-04T14:37:31.909Z,21.90
2023-04-04T14:40:02.660Z,21.60
2023-04-04T14:42:31.693Z,21.80
2023-04-04T14:45:02.575Z,22.50
2023-04-04T14:47:31.241Z,23.00
2023-04-04T14:50:00.985Z,22.50
2023-04-04T14:52:30.631Z,20.70
2023-04-04T14:55:01.173Z,20.20
2023-04-04T14:57:35.557Z,19.60
2023-04-04T15:00:09.275Z,19.30
2023-04-04T15:02:38.098Z,19.20
2023-04-04T15:05:09.066Z,19.30
2023-04-04T15:07:38.101Z,19.60
2023-04-04T15:10:09.566Z,19.70
2023-04-04T15:12:40.440Z,19.10
2023-04-04T15:15:13.646Z,19.20
2023-04-04T15:17:57.511Z,19.40
2023-04-04T15:20:28.782Z,19.60
2023-04-04T15:23:00.537Z,19.50
2023-04-04T15:25:31.528Z,19.90
2023-04-04T15:28:01.058Z,20.70
2023-04-04T15:30:30.090Z,20.20
2023-04-04T15:32:59.233Z,19.80
2023-04-04T15:35:28.513Z,19.10
2023-04-04T15:37:57.413Z,18.80
2023-04-04T15:40:26.156Z,17.80
2023-04-04T15:42:57.305Z,16.80
2023-04-04T15:45:27.336Z,16.50
2023-04-04T15:47:56.449Z,16.40
2023-04-04T15:50:25.104Z,16.40
2023-04-04T15:52:54.127Z,16.60
2023-04-04T15:55:50.757Z,17.20
2023-04-04T15:58:58.044Z,18.00
2023-04-04T16:01:34.808Z,17.80
2023-04-04T16:04:05.418Z,18.20
2023-04-04T16:06:55.181Z,18.50
2023-04-04T16:09:27.198Z,19.10
2023-04-04T16:12:05.048Z,18.80
2023-04-04T16:14:49.997Z,19.10
2023-04-04T16:17:19.300Z,19.60
2023-04-04T16:19:51.422Z,19.10
2023-04-04T16:22:25.763Z,18.40
2023-04-04T16:24:54.590Z,17.50
2023-04-04T16:27:24.960Z,17.30
2023-04-04T16:29:57.228Z,16.40
2023-04-04T16:32:27.939Z,15.90
2023-04-04T16:34:56.881Z,15.10
2023-04-04T16:37:28.024Z,14.90
2023-04-04T16:39:59.892Z,14.10
2023-04-04T16:42:39.446Z,13.90
2023-04-04T16:45:17.018Z,13.40
2023-04-04T16:47:47.985Z,12.90
2023-04-04T16:50:20.656Z,12.70
2023-04-04T16:52:50.419Z,12.50
2023-04-04T16:55:35.752Z,12.20
2023-04-04T16:58:06.637Z,11.90
2023-04-04T17:00:37.027Z,11.80
2023-04-04T17:03:11.991Z,11.50
2023-04-04T17:05:44.368Z,11.30
2023-04-04T17:08:18.147Z,11.00
2023-04-04T17:10:51.574Z,10.90
2023-04-04T17:13:20.413Z,10.60
2023-04-04T17:15:51.906Z,10.50
2023-04-04T17:18:27.886Z,10.40
2023-04-04T17:21:03.702Z,10.40
2023-04-04T17:23:34.707Z,10.20
2023-04-04T17:26:03.541Z,10.10
2023-04-04T17:28:33.597Z,10.00
2023-04-04T17:31:05.405Z,10.00
2023-04-04T17:33:36.285Z,9.80
2023-04-04T17:36:11.328Z,9.60
2023-04-04T17:38:46.036Z,9.50
2023-04-04T17:41:16.070Z,9.40
2023-04-04T17:43:45.042Z,9.40
2023-04-04T17:46:16.701Z,9.30
2023-04-04T17:48:45.661Z,9.20
2023-04-04T17:51:25.085Z,9.20
2023-04-04T17:54:01.064Z,9.00
2023-04-04T17:56:35.463Z,8.90
2023-04-04T17:59:13.996Z,8.80
2023-04-04T18:01:45.922Z,8.70
2023-04-04T18:04:14.656Z,8.70
2023-04-04T18:06:46.418Z,8.60
2023-04-04T18:09:15.325Z,8.50
2023-04-04T18:11:44.165Z,8.40
2023-04-04T18:14:12.882Z,8.30
2023-04-04T18:16:48.192Z,8.20
2023-04-04T18:19:17.154Z,8.10
2023-04-04T18:21:49.147Z,8.00
2023-04-04T18:24:20.058Z,7.90
2023-04-04T18:26:48.846Z,7.70
2023-04-04T18:29:17.613Z,7.40
2023-04-04T18:31:47.934Z,7.10
2023-04-04T18:34:20.026Z,7.00
2023-04-04T18:36:50.029Z,7.20
2023-04-04T18:39:18.804Z,7.10
2023-04-04T18:41:47.904Z,6.90
2023-04-04T18:44:17.712Z,6.90
2023-04-04T18:46:50.552Z,6.90
2023-04-04T18:49:19.809Z,6.80
2023-04-04T18:51:48.709Z,6.80
2023-04-04T18:54:17.637Z,6.80
2023-04-04T18:56:46.954Z,6.70
2023-04-04T18:59:20.590Z,6.60
2023-04-04T19:01:50.930Z,6.50
2023-04-04T19:04:22.579Z,6.60
2023-04-04T19:06:55.588Z,6.70
2023-04-04T19:09:24.649Z,6.60
2023-04-04T19:11:55.361Z,6.50
2023-04-04T19:14:30.341Z,6.50
2023-04-04T19:17:01.293Z,6.50
2023-04-04T19:19:30.267Z,6.60
2023-04-04T19:21:59.046Z,6.60
2023-04-04T19:24:30.833Z,6.70
2023-04-04T19:27:02.856Z,6.70
2023-04-04T19:29:32.369Z,6.60
2023-04-04T19:32:13.443Z,6.60
2023-04-04T19:34:44.391Z,6.50
2023-04-04T19:37:18.062Z,6.50
2023-04-04T19:39:48.294Z,6.40
2023-04-04T19:42:27.035Z,6.40
2023-04-04T19:44:57.115Z,6.30
2023-04-04T19:47:31.771Z,6.30
2023-04-04T19:50:00.868Z,6.20
2023-04-04T19:52:30.677Z,6.20
2023-04-04T19:55:00.059Z,6.10
2023-04-04T19:57:37.628Z,6.20
2023-04-04T20:00:16.934Z,6.10
2023-04-04T20:03:02.522Z,6.10
2023-04-04T20:05:58.548Z,6.00
2023-04-04T20:08:43.212Z,6.00
2023-04-04T20:11:28.668Z,5.90
2023-04-04T20:13:59.997Z,5.80
2023-04-04T20:16:31.465Z,5.90
2023-04-04T20:19:03.906Z,6.00
2023-04-04T20:21:37.979Z,6.10
2023-04-04T20:24:18.150Z,5.90
2023-04-04T20:26:57.242Z,5.70
2023-04-04T20:29:28.341Z,5.50
2023-04-04T20:31:58.729Z,5.50
2023-04-04T20:34:42.012Z,5.70
2023-04-04T20:37:13.725Z,5.80
2023-04-04T20:39:49.132Z,5.80
2023-04-04T20:42:39.503Z,5.70
2023-04-04T20:45:37.575Z,5.70
2023-04-04T20:48:08.688Z,5.60
2023-04-04T20:50:47.498Z,5.80
2023-04-04T20:53:22.433Z,5.70
2023-04-04T20:55:57.732Z,5.60
2023-04-04T20:58:34.481Z,5.30
2023-04-04T21:01:10.231Z,5.20
2023-04-04T21:03:42.286Z,5.10
2023-04-04T21:06:17.425Z,5.00
2023-04-04T21:08:50.480Z,4.90
2023-04-04T21:11:29.544Z,4.80
2023-04-04T21:13:58.568Z,4.80
2023-04-04T21:16:31.370Z,4.70
2023-04-04T21:19:02.254Z,4.50
2023-04-04T21:21:37.240Z,4.40
2023-04-04T21:24:13.111Z,4.40
2023-04-04T21:26:44.135Z,4.30
2023-04-04T21:29:24.111Z,4.30
2023-04-04T21:31:54.713Z,4.20
2023-04-04T21:34:25.273Z,4.20
2023-04-04T21:36:56.781Z,4.10
2023-04-04T21:39:26.569Z,4.00
2023-04-04T21:41:59.389Z,3.80
2023-04-04T21:44:28.893Z,3.70
2023-04-04T21:46:57.629Z,3.60
2023-04-04T21:49:26.601Z,3.40
2023-04-04T21:51:56.824Z,3.20
2023-04-04T21:54:25.514Z,3.00
2023-04-04T21:56:54.184Z,2.90
2023-04-04T21:59:22.811Z,2.70
2023-04-04T22:01:52.040Z,2.70
2023-04-04T22:04:20.628Z,2.70
2023-04-04T22:06:49.319Z,2.60
2023-04-04T22:09:22.811Z,2.40
2023-04-04T22:11:56.424Z,2.30
2023-04-04T22:14:25.318Z,2.30
2023-04-04T22:16:59.083Z,2.10
2023-04-04T22:19:27.739Z,2.00
2023-04-04T22:21:58.758Z,1.90
2023-04-04T22:24:29.816Z,1.80
2023-04-04T22:26:58.608Z,1.70
2023-04-04T22:29:27.309Z,1.50
2023-04-04T22:31:56.908Z,1.50
2023-04-04T22:34:26.202Z,1.50
2023-04-04T22:36:55.278Z,1.40
2023-04-04T22:39:24.138Z,1.30
2023-04-04T22:41:54.264Z,1.20
2023-04-04T22:44:23.281Z,1.10
2023-04-04T22:46:52.061Z,1.10
2023-04-04T22:49:22.621Z,1.00
2023-04-04T22:51:55.808Z,1.00
2023-04-04T22:54:25.042Z,0.90
2023-04-04T22:56:55.518Z,0.80
2023-04-04T22:59:24.386Z,0.80
2023-04-04T23:01:53.091Z,0.70
2023-04-04T23:04:21.807Z,0.60
2023-04-04T23:06:51.540Z,0.50
2023-04-04T23:09:20.737Z,0.50
2023-04-04T23:11:49.387Z,0.40
2023-04-04T23:14:20.068Z,0.30
2023-04-04T23:16:49.025Z,0.30
2023-04-04T23:19:17.807Z,0.20
2023-04-04T23:21:46.649Z,0.20
2023-04-04T23:24:15.771Z,0.30
2023-04-04T23:26:45.583Z,0.30
2023-04-04T23:29:14.737Z,0.10
2023-04-04T23:31:45.210Z,0.00
2023-04-04T23:34:13.982Z,-0.10
2023-04-04T23:36:42.818Z,-0.10
2023-04-04T23:39:11.414Z,-0.10
2023-04-04T23:41:40.479Z,-0.20
2023-04-04T23:44:09.210Z,-0.30
2023-04-04T23:46:38.180Z,-0.40
2023-04-04T23:49:09.581Z,-0.40
2023-04-04T23:51:39.364Z,-0.40
2023-04-04T23:54:08.750Z,-0.40
2023-04-04T23:56:38.244Z,-0.50
2023-04-04T23:59:08.093Z,-0.50
